Time;durP1;ratioP1;P1;durP2;ratioP2;P2;SDS_P1;SDS_P2;PMS_P1;PMS_P2;Temp;Humidity;BMP_temperature;BMP_pressure;BME280_temperature;BME280_humidity;BME280_pressure;Samples;Min_cycle;Max_cycle;Signal;HPM_P1;HPM_P2
2021/07/26 17:43:57;;;;;;;30.63;9.27;;;28.30;99.90;;;;;;4872570;23;20056;-86
2021/07/26 17:46:22;;;;;;;31.80;10.32;;;28.30;99.90;;;;;;4865929;29;20490;-88
2021/07/26 17:48:48;;;;;;;30.83;9.82;;;28.30;99.90;;;;;;4883213;29;20029;-86
2021/07/26 17:51:14;;;;;;;32.97;10.00;;;28.00;99.90;;;;;;4898554;29;20037;-86
2021/07/26 17:53:39;;;;;;;32.83;8.88;;;27.70;99.90;;;;;;4893168;29;20154;-87
2021/07/26 17:56:05;;;;;;;45.53;9.05;;;27.30;99.90;;;;;;4879712;29;20129;-87
2021/07/26 17:58:31;;;;;;;26.50;8.10;;;27.00;99.90;;;;;;4880196;29;20047;-84
2021/07/26 18:00:56;;;;;;;25.30;7.90;;;26.80;99.90;;;;;;4880154;29;20417;-89
2021/07/26 18:03:23;;;;;;;33.28;9.15;;;26.60;99.90;;;;;;4869051;29;20093;-82
2021/07/26 18:05:55;;;;;;;27.65;8.35;;;26.30;99.90;;;;;;4897483;29;20688;-83
2021/07/26 18:08:21;;;;;;;24.83;8.35;;;26.20;99.90;;;;;;4898520;29;20033;-86
2021/07/26 18:10:47;;;;;;;23.45;8.23;;;26.20;99.90;;;;;;4888474;29;20033;-85
2021/07/26 18:13:13;;;;;;;20.55;6.63;;;26.10;99.90;;;;;;4884594;29;20040;-90
2021/07/26 18:15:40;;;;;;;25.73;7.88;;;26.00;99.90;;;;;;4881065;29;20029;-84
2021/07/26 18:18:06;;;;;;;24.50;5.88;;;25.90;99.90;;;;;;4897927;29;20500;-85
2021/07/26 18:20:34;;;;;;;22.38;6.45;;;25.80;99.90;;;;;;4897431;29;20084;-90
2021/07/26 18:23:00;;;;;;;16.10;5.80;;;25.80;99.90;;;;;;4897315;29;20097;-86
2021/07/26 18:25:29;;;;;;;24.00;5.60;;;25.90;99.90;;;;;;4894676;29;20474;-92
2021/07/26 18:27:56;;;;;;;15.38;5.00;;;25.90;99.90;;;;;;4880821;29;20537;-83
2021/07/26 18:30:22;;;;;;;25.55;5.43;;;25.90;99.90;;;;;;4897678;29;20084;-87
2021/07/26 18:32:49;;;;;;;22.60;6.20;;;25.80;99.90;;;;;;4897188;29;20036;-84
2021/07/26 18:35:14;;;;;;;23.23;6.28;;;25.90;99.90;;;;;;4897739;29;20017;-89
2021/07/26 18:37:41;;;;;;;28.00;7.13;;;25.90;99.90;;;;;;4897730;29;20398;-91
2021/07/26 18:40:09;;;;;;;32.22;6.00;;;25.90;99.90;;;;;;4897483;29;20033;-86
2021/07/26 18:42:36;;;;;;;30.55;5.45;;;26.00;99.90;;;;;;4895905;29;20173;-88
2021/07/26 18:45:08;;;;;;;22.35;5.57;;;26.00;99.90;;;;;;4896479;29;20032;-83
2021/07/26 18:47:34;;;;;;;21.42;5.22;;;26.10;99.90;;;;;;4897423;29;20033;-89
2021/07/26 18:50:00;;;;;;;21.40;5.78;;;26.00;99.90;;;;;;4896740;29;20435;-91
2021/07/26 18:52:26;;;;;;;25.73;6.00;;;25.90;99.90;;;;;;4880254;29;20128;-86
2021/07/26 18:54:52;;;;;;;33.15;6.40;;;25.90;99.90;;;;;;4897385;29;20107;-93
2021/07/26 18:57:18;;;;;;;16.95;4.85;;;25.90;99.90;;;;;;4880168;29;20525;-91
2021/07/26 18:59:43;;;;;;;20.92;5.22;;;25.80;99.90;;;;;;4892075;29;20040;-84
2021/07/26 19:02:09;;;;;;;20.67;5.55;;;25.80;99.90;;;;;;4890164;29;20052;-83
2021/07/26 19:04:35;;;;;;;19.70;4.28;;;25.80;99.90;;;;;;4863936;29;20025;-83
2021/07/26 19:07:01;;;;;;;23.95;5.95;;;25.70;99.90;;;;;;4890320;29;20035;-82
2021/07/26 19:09:26;;;;;;;17.35;5.68;;;25.60;99.90;;;;;;4890305;29;20036;-81
2021/07/26 19:11:52;;;;;;;11.95;4.90;;;25.20;99.90;;;;;;4876927;29;20450;-86
2021/07/26 19:14:18;;;;;;;20.90;4.93;;;24.90;99.90;;;;;;4887492;29;20040;-84
2021/07/26 19:16:43;;;;;;;10.65;4.60;;;24.70;99.90;;;;;;4895220;29;20103;-82
2021/07/26 19:19:09;;;;;;;19.27;4.15;;;24.60;99.90;;;;;;4895707;29;20039;-84
2021/07/26 19:21:36;;;;;;;15.75;4.05;;;24.60;99.90;;;;;;4892347;29;20043;-83
2021/07/26 19:24:02;;;;;;;14.13;4.55;;;24.50;99.90;;;;;;4871233;29;20028;-83
2021/07/26 19:26:28;;;;;;;18.75;4.40;;;24.50;99.90;;;;;;4895845;29;20036;-81
2021/07/26 19:28:53;;;;;;;17.63;5.30;;;24.50;99.90;;;;;;4879126;29;20450;-82
2021/07/26 19:31:19;;;;;;;18.17;5.07;;;24.40;99.90;;;;;;4894965;29;20043;-84
2021/07/26 19:33:45;;;;;;;18.52;5.88;;;24.30;99.90;;;;;;4892167;29;20040;-84
2021/07/26 19:36:12;;;;;;;20.55;5.20;;;24.20;99.90;;;;;;4891717;29;20036;-83
2021/07/26 19:38:38;;;;;;;13.52;4.97;;;24.10;99.90;;;;;;4893941;29;20044;-82
2021/07/26 19:41:08;;;;;;;14.27;4.30;;;24.10;99.90;;;;;;4891781;29;20036;-83
2021/07/26 19:43:34;;;;;;;19.77;4.88;;;24.10;99.90;;;;;;4888883;29;20249;-84
2021/07/26 19:46:00;;;;;;;17.05;3.78;;;24.10;99.90;;;;;;4886745;29;20121;-86
2021/07/26 19:48:26;;;;;;;6.88;3.60;;;24.10;99.90;;;;;;4877472;29;20036;-83
2021/07/26 19:50:52;;;;;;;14.50;5.15;;;24.10;99.90;;;;;;4894962;29;20033;-85
2021/07/26 19:53:18;;;;;;;18.52;4.93;;;24.00;99.90;;;;;;4895397;29;20422;-84
2021/07/26 19:55:44;;;;;;;18.13;4.63;;;23.90;99.90;;;;;;4893430;29;20425;-84
2021/07/26 19:58:10;;;;;;;15.90;4.35;;;23.90;99.90;;;;;;4893986;29;20064;-83
2021/07/26 20:00:36;;;;;;;16.02;4.63;;;23.90;99.90;;;;;;4892644;29;20045;-80
2021/07/26 20:03:03;;;;;;;10.80;3.75;;;23.90;99.90;;;;;;4882153;29;20162;-84
2021/07/26 20:05:29;;;;;;;14.43;4.05;;;23.90;99.90;;;;;;4877135;29;20052;-84
2021/07/26 20:07:56;;;;;;;23.20;5.30;;;24.00;99.90;;;;;;4874733;29;20525;-84
2021/07/26 20:10:22;;;;;;;10.73;4.10;;;24.00;99.90;;;;;;4893401;29;20029;-84
2021/07/26 20:12:48;;;;;;;18.33;5.57;;;24.10;99.90;;;;;;4890164;29;20048;-83
2021/07/26 20:15:17;;;;;;;11.35;4.57;;;24.20;99.90;;;;;;4892023;29;20112;-83
2021/07/26 20:17:45;;;;;;;17.25;4.13;;;24.20;99.90;;;;;;4893288;29;20029;-85
2021/07/26 20:20:15;;;;;;;16.20;4.75;;;24.20;99.90;;;;;;4892220;29;20900;-80
2021/07/26 20:22:40;;;;;;;15.95;4.40;;;24.20;99.90;;;;;;4890798;29;20601;-83
2021/07/26 20:25:06;;;;;;;18.02;4.90;;;24.20;99.90;;;;;;4887509;29;20112;-84
2021/07/26 20:27:32;;;;;;;19.17;5.70;;;24.20;99.90;;;;;;4896027;29;20116;-83
2021/07/26 20:29:58;;;;;;;26.83;7.30;;;24.20;99.90;;;;;;4895633;29;20107;-82
2021/07/26 20:32:23;;;;;;;25.15;6.07;;;24.20;99.90;;;;;;4898320;29;20053;-82
2021/07/26 20:34:49;;;;;;;30.35;6.85;;;24.20;99.90;;;;;;4898425;29;20039;-82
2021/07/26 20:37:15;;;;;;;26.30;6.38;;;24.10;99.90;;;;;;4895503;29;20068;-85
2021/07/26 20:39:41;;;;;;;26.70;6.18;;;24.00;99.90;;;;;;4898153;29;20024;-84
2021/07/26 20:42:06;;;;;;;21.30;5.70;;;23.90;99.90;;;;;;4899143;29;20032;-82
2021/07/26 20:44:32;;;;;;;27.52;5.72;;;23.70;99.90;;;;;;4898681;29;20039;-82
2021/07/26 20:47:00;;;;;;;20.52;5.63;;;23.60;99.90;;;;;;4898716;29;20079;-82
2021/07/26 20:49:26;;;;;;;27.15;7.32;;;23.60;99.90;;;;;;4893738;29;20016;-82
2021/07/26 20:51:52;;;;;;;19.85;5.40;;;23.40;99.90;;;;;;4888402;29;20033;-82
2021/07/26 20:54:18;;;;;;;16.83;6.43;;;23.40;99.90;;;;;;4898845;29;20450;-81
2021/07/26 20:56:44;;;;;;;21.40;5.65;;;23.30;99.90;;;;;;4898629;29;20060;-85
2021/07/26 20:59:10;;;;;;;15.60;5.03;;;23.20;99.90;;;;;;4882198;29;20048;-84
2021/07/26 21:01:35;;;;;;;19.33;6.30;;;23.20;99.90;;;;;;4898339;29;20604;-83
2021/07/26 21:04:06;;;;;;;15.27;5.05;;;23.20;99.90;;;;;;4898515;29;20028;-83
2021/07/26 21:06:33;;;;;;;18.90;5.80;;;23.20;99.90;;;;;;4900125;29;20041;-83
2021/07/26 21:09:00;;;;;;;19.15;5.65;;;23.10;99.90;;;;;;4897911;29;20269;-86
2021/07/26 21:11:26;;;;;;;22.58;6.75;;;23.10;99.90;;;;;;4897769;29;20036;-86
2021/07/26 21:13:57;;;;;;;32.05;6.25;;;23.10;99.90;;;;;;4879261;29;20041;-84
2021/07/26 21:16:49;;;;;;;25.10;5.97;;;23.20;99.90;;;;;;4881507;29;20040;-85
2021/07/26 21:19:14;;;;;;;23.10;6.47;;;23.20;99.90;;;;;;4876303;29;20062;-84
2021/07/26 21:21:40;;;;;;;14.30;5.18;;;23.20;99.90;;;;;;4863788;29;20087;-84
2021/07/26 21:24:06;;;;;;;30.83;6.88;;;23.30;99.90;;;;;;4867737;29;20040;-84
2021/07/26 21:26:32;;;;;;;18.45;5.38;;;23.30;99.90;;;;;;4898118;29;20426;-84
2021/07/26 21:28:58;;;;;;;18.45;6.13;;;23.30;99.90;;;;;;4897012;29;20032;-84
2021/07/26 21:31:24;;;;;;;17.35;5.57;;;23.30;99.90;;;;;;4897168;29;20043;-85
2021/07/26 21:33:50;;;;;;;28.45;6.53;;;23.40;99.90;;;;;;4897954;29;20041;-84
2021/07/26 21:36:16;;;;;;;22.80;6.10;;;23.40;99.90;;;;;;4882741;29;20033;-84
2021/07/26 21:38:42;;;;;;;16.92;5.60;;;23.40;99.90;;;;;;4891016;29;20040;-84
2021/07/26 21:41:07;;;;;;;24.45;6.13;;;23.40;99.90;;;;;;4898095;29;20025;-84
2021/07/26 21:43:34;;;;;;;23.52;6.03;;;23.40;99.90;;;;;;4898198;29;20707;-84
2021/07/26 21:46:00;;;;;;;27.90;6.45;;;23.40;99.90;;;;;;4880496;29;20050;-85
2021/07/26 21:48:25;;;;;;;22.80;5.80;;;23.40;99.90;;;;;;4898310;29;20393;-85
2021/07/26 21:50:52;;;;;;;20.40;5.47;;;23.40;99.90;;;;;;4896749;29;20029;-84
2021/07/26 21:53:18;;;;;;;21.92;6.35;;;23.40;99.90;;;;;;4897945;29;20131;-84
2021/07/26 21:55:43;;;;;;;25.13;6.78;;;23.40;99.90;;;;;;4879791;29;20128;-83
2021/07/26 21:58:09;;;;;;;17.20;5.22;;;23.40;99.90;;;;;;4897387;29;20040;-84
2021/07/26 22:00:35;;;;;;;22.88;5.25;;;23.40;99.90;;;;;;4891236;29;20123;-86
2021/07/26 22:03:02;;;;;;;27.25;6.18;;;23.40;99.90;;;;;;4889908;29;20111;-85
2021/07/26 22:05:28;;;;;;;21.77;6.15;;;23.40;99.90;;;;;;4878517;29;20044;-86
2021/07/26 22:07:54;;;;;;;18.10;5.47;;;23.40;99.90;;;;;;4879899;29;20040;-85
2021/07/26 22:10:19;;;;;;;17.67;5.85;;;23.40;99.90;;;;;;4893380;29;20037;-85
2021/07/26 22:12:45;;;;;;;24.98;5.85;;;23.30;99.90;;;;;;4895796;29;20068;-85
2021/07/26 22:15:11;;;;;;;24.15;5.13;;;23.40;99.90;;;;;;4897168;29;20434;-85
2021/07/26 22:17:37;;;;;;;17.95;6.13;;;23.30;99.90;;;;;;4882053;29;20401;-84
2021/07/26 22:20:04;;;;;;;17.20;5.57;;;23.30;99.90;;;;;;4896992;29;20021;-84
2021/07/26 22:22:30;;;;;;;18.10;5.63;;;23.40;99.90;;;;;;4891913;29;20124;-85
2021/07/26 22:24:56;;;;;;;27.63;6.93;;;23.40;99.90;;;;;;4880134;29;20465;-85
2021/07/26 22:27:22;;;;;;;12.07;5.35;;;23.40;99.90;;;;;;4864375;29;20032;-84
2021/07/26 22:29:48;;;;;;;25.60;6.07;;;23.50;99.90;;;;;;4895885;29;20040;-84
2021/07/26 22:32:14;;;;;;;26.45;6.95;;;23.50;99.90;;;;;;4896775;29;20049;-84
2021/07/26 22:34:40;;;;;;;27.33;6.18;;;23.40;99.90;;;;;;4897127;29;20032;-84
2021/07/26 22:37:05;;;;;;;13.60;4.85;;;23.40;99.90;;;;;;4895624;29;20038;-84
2021/07/26 22:39:33;;;;;;;17.08;5.90;;;23.50;99.90;;;;;;4896339;29;20088;-85
2021/07/26 22:41:59;;;;;;;17.65;5.78;;;23.50;99.90;;;;;;4897588;29;20036;-84
2021/07/26 22:44:24;;;;;;;16.55;5.38;;;23.50;99.90;;;;;;4897481;29;20422;-84
2021/07/26 22:46:50;;;;;;;16.88;5.68;;;23.50;99.90;;;;;;4880462;29;20120;-84
2021/07/26 22:49:18;;;;;;;19.60;6.20;;;23.50;99.90;;;;;;4897195;29;20040;-85
2021/07/26 22:51:44;;;;;;;20.23;6.20;;;23.50;99.90;;;;;;4880621;29;20479;-84
2021/07/26 22:54:09;;;;;;;16.40;6.35;;;23.50;99.90;;;;;;4897594;29;20100;-85
2021/07/26 22:56:35;;;;;;;28.33;6.70;;;23.50;99.90;;;;;;4893369;29;20033;-84
2021/07/26 22:59:01;;;;;;;18.42;7.25;;;23.60;99.90;;;;;;4897481;29;20104;-84
2021/07/26 23:01:26;;;;;;;16.13;5.53;;;23.60;99.90;;;;;;4897483;29;20436;-84
2021/07/26 23:03:52;;;;;;;17.05;5.57;;;23.60;99.90;;;;;;4897396;29;20028;-84
2021/07/26 23:06:18;;;;;;;23.75;5.78;;;23.70;99.90;;;;;;4897542;29;20035;-84
2021/07/26 23:08:44;;;;;;;14.20;6.32;;;23.70;99.90;;;;;;4884711;29;20033;-84
2021/07/26 23:11:10;;;;;;;25.40;7.85;;;23.60;99.90;;;;;;4888939;29;20125;-84
2021/07/26 23:13:37;;;;;;;26.85;6.30;;;23.60;99.90;;;;;;4882160;29;20517;-84
2021/07/26 23:16:06;;;;;;;26.80;6.00;;;23.50;99.90;;;;;;4897277;29;20386;-84
2021/07/26 23:18:32;;;;;;;22.95;6.32;;;23.40;99.90;;;;;;4895224;29;20040;-84
2021/07/26 23:20:58;;;;;;;14.88;6.30;;;23.20;99.90;;;;;;4896833;29;20107;-84
2021/07/26 23:23:24;;;;;;;19.08;6.25;;;23.10;99.90;;;;;;4897526;29;20039;-84
2021/07/26 23:25:49;;;;;;;31.88;6.72;;;23.00;99.90;;;;;;4880553;29;20040;-84
2021/07/26 23:28:16;;;;;;;20.23;6.40;;;23.00;99.90;;;;;;4897095;29;20029;-84
2021/07/26 23:30:42;;;;;;;15.80;5.50;;;23.10;99.90;;;;;;4897049;29;20092;-84
2021/07/26 23:33:08;;;;;;;21.88;5.55;;;23.10;99.90;;;;;;4896541;29;20032;-84
2021/07/26 23:35:34;;;;;;;14.23;5.47;;;23.20;99.90;;;;;;4896182;29;20068;-84
2021/07/26 23:38:02;;;;;;;13.88;6.03;;;23.20;99.90;;;;;;4878778;29;20043;-84
2021/07/26 23:40:28;;;;;;;20.00;6.03;;;23.20;99.90;;;;;;4895710;29;20490;-84
2021/07/26 23:42:53;;;;;;;18.38;5.97;;;23.20;99.90;;;;;;4896795;29;20077;-84
2021/07/26 23:45:19;;;;;;;15.25;5.78;;;23.20;99.90;;;;;;4879681;29;20037;-85
2021/07/26 23:47:45;;;;;;;15.43;5.68;;;23.20;99.90;;;;;;4880172;29;20493;-84
2021/07/26 23:50:11;;;;;;;22.42;5.65;;;23.10;99.90;;;;;;4896558;29;20371;-84
2021/07/26 23:52:37;;;;;;;23.70;6.38;;;23.00;99.90;;;;;;4879498;29;20493;-85
2021/07/26 23:55:02;;;;;;;21.45;6.55;;;22.90;99.90;;;;;;4879744;29;20041;-84
2021/07/26 23:57:28;;;;;;;12.20;5.63;;;22.80;99.90;;;;;;4896604;29;20037;-85
2021/07/26 23:59:54;;;;;;;22.92;5.63;;;22.90;99.90;;;;;;4893255;29;20109;-84
